Time;durP1;ratioP1;P1;durP2;ratioP2;P2;SDS_P1;SDS_P2;PMS_P1;PMS_P2;Temp;Humidity;BMP_temperature;BMP_pressure;BME280_temperature;BME280_humidity;BME280_pressure;Samples;Min_cycle;Max_cycle;Signal;HPM_P1;HPM_P2
2022/09/01 00:01:20;;;;;;;;;;;20.50;74.10;;;-147.18;100.00;67318.16;4980903;28;19933;-82
2022/09/01 00:03:51;;;;;;;;;;;20.40;74.40;;;-147.18;100.00;67318.16;4993059;28;19922;-82
2022/09/01 00:06:21;;;;;;;;;;;20.40;74.80;;;-147.18;100.00;67318.16;4982135;28;19964;-83
2022/09/01 00:08:48;;;;;;;;;;;20.40;73.70;;;-147.18;100.00;67318.16;4989947;28;19922;-82
2022/09/01 00:11:15;;;;;;;;;;;20.40;73.50;;;-147.18;100.00;67318.16;4983158;28;20029;-82
2022/09/01 00:13:42;;;;;;;;;;;20.40;73.80;;;-147.18;100.00;67318.16;4989202;28;20081;-82
2022/09/01 00:16:12;;;;;;;;;;;20.40;74.30;;;-147.18;100.00;67318.16;4981120;28;19932;-82
2022/09/01 00:18:40;;;;;;;;;;;20.40;74.20;;;-147.18;100.00;67318.16;4985426;28;20021;-82
2022/09/01 00:21:09;;;;;;;;;;;20.40;74.80;;;-147.18;100.00;67318.16;4974108;28;20057;-82
2022/09/01 00:23:37;;;;;;;;;;;20.40;75.00;;;-147.18;100.00;67318.16;4985984;28;19929;-83
2022/09/01 00:26:04;;;;;;;;;;;20.30;74.50;;;-147.18;100.00;67318.16;4988416;28;19969;-82
2022/09/01 00:28:32;;;;;;;;;;;20.30;74.90;;;-147.18;100.00;67318.16;4984223;28;20393;-82
2022/09/01 00:31:00;;;;;;;;;;;20.30;74.70;;;-147.18;100.00;67318.16;4986218;28;19980;-82
2022/09/01 00:33:27;;;;;;;;;;;20.30;74.30;;;-147.18;100.00;67318.16;4984700;28;19921;-82
2022/09/01 00:35:54;;;;;;;;;;;20.30;74.90;;;-147.18;100.00;67318.16;4984740;28;19932;-82
2022/09/01 00:38:22;;;;;;;;;;;20.30;74.90;;;-147.18;100.00;67318.16;4980615;28;19922;-82
2022/09/01 00:40:49;;;;;;;;;;;20.30;74.30;;;-147.18;100.00;67318.16;4996289;28;19926;-82
2022/09/01 00:43:21;;;;;;;;;;;20.30;74.60;;;-147.18;100.00;67318.16;4985418;28;19928;-82
2022/09/01 00:45:48;;;;;;;;;;;20.30;74.90;;;-147.18;100.00;67318.16;4987854;28;19953;-83
2022/09/01 00:48:15;;;;;;;;;;;20.30;74.70;;;-147.18;100.00;67318.16;4995473;28;19972;-82
2022/09/01 00:50:43;;;;;;;;;;;20.30;74.90;;;-147.18;100.00;67318.16;4983783;28;20279;-82
2022/09/01 00:53:10;;;;;;;;;;;20.30;75.10;;;-147.18;100.00;67318.16;4987352;28;20376;-82
2022/09/01 00:55:39;;;;;;;;;;;20.30;75.80;;;-147.18;100.00;67318.16;4980883;28;19928;-82
2022/09/01 00:58:07;;;;;;;;;;;20.20;75.70;;;-147.18;100.00;67318.16;4986000;28;20371;-83
2022/09/01 01:00:39;;;;;;;;;;;20.20;75.70;;;-147.18;100.00;67318.16;4980409;28;20416;-82
2022/09/01 01:03:08;;;;;;;;;;;20.20;75.70;;;-147.18;100.00;67318.16;4979570;28;19922;-82
2022/09/01 01:05:40;;;;;;;;;;;20.20;76.00;;;-147.18;100.00;67318.16;4979171;28;19930;-82
2022/09/01 01:08:08;;;;;;;;;;;20.20;76.00;;;-147.18;100.00;67318.16;4980225;28;19922;-82
2022/09/01 01:10:39;;;;;;;;;;;20.20;76.30;;;-147.18;100.00;67318.16;4981819;28;19929;-82
2022/09/01 01:13:09;;;;;;;;;;;20.10;76.60;;;-147.18;100.00;67318.16;4986581;28;19928;-82
2022/09/01 01:15:36;;;;;;;;;;;20.10;76.40;;;-147.18;100.00;67318.16;4987128;28;19922;-82
2022/09/01 01:18:03;;;;;;;;;;;20.10;76.50;;;-147.18;100.00;67318.16;4986000;28;19922;-82
2022/09/01 01:23:25;;;;;;;;;;;20.00;77.20;;;-147.18;100.00;67318.16;4981453;28;19953;-82
2022/09/01 01:25:56;;;;;;;;;;;19.90;77.40;;;-147.18;100.00;67318.16;4974497;28;19922;-82
2022/09/01 01:28:28;;;;;;;;;;;19.90;77.40;;;-147.18;100.00;67318.16;4952984;28;20017;-82
2022/09/01 01:31:00;;;;;;;;;;;19.90;77.40;;;-147.18;100.00;67318.16;4993220;28;19944;-82
2022/09/01 01:33:29;;;;;;;;;;;19.80;77.30;;;-147.18;100.00;67318.16;4976366;28;20461;-82
2022/09/01 01:35:58;;;;;;;;;;;19.80;77.50;;;-147.18;100.00;67318.16;4989681;28;20286;-82
2022/09/01 01:38:27;;;;;;;;;;;19.80;77.50;;;-147.18;100.00;67318.16;4998548;28;19928;-82
2022/09/01 01:40:56;;;;;;;;;;;19.70;77.30;;;-147.18;100.00;67318.16;4985467;28;19936;-82
2022/09/01 01:43:26;;;;;;;;;;;19.70;77.60;;;-147.18;100.00;67318.16;4998770;28;19926;-82
2022/09/01 01:45:57;;;;;;;;;;;19.70;77.70;;;-147.18;100.00;67318.16;4980842;28;19922;-82
2022/09/01 01:48:33;;;;;;;;;;;19.60;78.00;;;-147.18;100.00;67318.16;4969934;28;20396;-82
2022/09/01 01:51:01;;;;;;;;;;;19.60;78.10;;;-147.18;100.00;67318.16;4996471;28;19929;-82
2022/09/01 01:53:29;;;;;;;;;;;19.60;78.20;;;-147.18;100.00;67318.16;4974241;28;20448;-82
2022/09/01 01:55:58;;;;;;;;;;;19.50;78.30;;;-147.18;100.00;67318.16;4993415;28;20024;-82
2022/09/01 01:58:29;;;;;;;;;;;19.50;78.80;;;-147.18;100.00;67318.16;4998868;28;19928;-82
2022/09/01 02:00:57;;;;;;;;;;;19.50;79.20;;;-147.18;100.00;67318.16;4993927;28;19936;-82
2022/09/01 02:03:27;;;;;;;;;;;19.40;79.80;;;-147.18;100.00;67318.16;4993377;28;20370;-82
2022/09/01 02:05:55;;;;;;;;;;;19.30;79.60;;;-147.18;100.00;67318.16;4983290;28;19925;-82
2022/09/01 02:08:24;;;;;;;;;;;19.30;79.70;;;-147.18;100.00;67318.16;4981098;28;19922;-82
2022/09/01 02:10:54;;;;;;;;;;;19.20;79.80;;;-147.18;100.00;67318.16;4981633;28;20027;-82
2022/09/01 02:13:29;;;;;;;;;;;19.20;80.10;;;-147.18;100.00;67318.16;4981450;28;19930;-82
2022/09/01 02:16:00;;;;;;;;;;;19.10;80.20;;;-147.18;100.00;67318.16;4996348;28;20455;-82
2022/09/01 02:18:33;;;;;;;;;;;19.10;80.50;;;-147.18;100.00;67318.16;4983455;28;19925;-82
2022/09/01 02:21:02;;;;;;;;;;;19.10;80.50;;;-147.18;100.00;67318.16;4981221;28;19961;-82
2022/09/01 02:23:30;;;;;;;;;;;19.10;80.80;;;-147.18;100.00;67318.16;4976139;28;19929;-82
2022/09/01 02:26:01;;;;;;;;;;;19.00;80.70;;;-147.18;100.00;67318.16;4983128;28;20302;-82
2022/09/01 02:28:35;;;;;;;;;;;19.00;81.10;;;-147.18;100.00;67318.16;4994932;28;19954;-82
2022/09/01 02:31:07;;;;;;;;;;;19.00;81.30;;;-147.18;100.00;67318.16;4984701;28;19944;-82
2022/09/01 02:33:36;;;;;;;;;;;18.90;81.50;;;-147.18;100.00;67318.16;4998249;28;19922;-82
2022/09/01 02:36:07;;;;;;;;;;;18.90;81.50;;;-147.18;100.00;67318.16;4980090;28;19929;-82
2022/09/01 02:38:34;;;;;;;;;;;18.90;81.60;;;-147.18;100.00;67318.16;4980714;28;19929;-82
2022/09/01 02:41:03;;;;;;;;;;;18.90;81.90;;;-147.18;100.00;67318.16;4982313;28;20378;-82
2022/09/01 02:43:32;;;;;;;;;;;18.90;82.00;;;-147.18;100.00;67318.16;4981839;28;19921;-82
2022/09/01 02:46:01;;;;;;;;;;;18.80;82.00;;;-147.18;100.00;67318.16;4981640;28;19922;-82
2022/09/01 02:48:36;;;;;;;;;;;18.80;82.10;;;-147.18;100.00;67318.16;4984059;28;19944;-82
2022/09/01 02:51:05;;;;;;;;;;;18.80;82.10;;;-147.18;100.00;67318.16;4982634;28;19922;-82
2022/09/01 02:53:34;;;;;;;;;;;18.80;82.50;;;-147.18;100.00;67318.16;4974565;28;19926;-82
2022/09/01 02:56:02;;;;;;;;;;;18.70;82.80;;;-147.18;100.00;67318.16;4994149;28;19980;-82
2022/09/01 02:58:32;;;;;;;;;;;18.70;82.90;;;-147.18;100.00;67318.16;4981225;28;19969;-82
2022/09/01 03:01:00;;;;;;;;;;;18.70;82.90;;;-147.18;100.00;67318.16;4978689;28;19930;-82
2022/09/01 03:03:27;;;;;;;;;;;18.70;82.90;;;-147.18;100.00;67318.16;4993229;28;19977;-82
2022/09/01 03:05:55;;;;;;;;;;;18.60;82.70;;;-147.18;100.00;67318.16;4974217;28;19969;-82
2022/09/01 03:08:23;;;;;;;;;;;18.70;82.80;;;-147.18;100.00;67318.16;4980017;28;19929;-82
2022/09/01 03:10:52;;;;;;;;;;;18.60;82.60;;;-147.18;100.00;67318.16;4981909;28;19930;-82
2022/09/01 03:13:24;;;;;;;;;;;18.60;82.70;;;-147.18;100.00;67318.16;4972374;28;19925;-82
2022/09/01 03:15:52;;;;;;;;;;;18.60;82.80;;;-147.18;100.00;67318.16;4984337;28;19929;-82
2022/09/01 03:18:19;;;;;;;;;;;18.60;83.10;;;-147.18;100.00;67318.16;4982925;28;19953;-82
2022/09/01 03:20:51;;;;;;;;;;;18.50;83.20;;;-147.18;100.00;67318.16;4971803;28;19929;-82
2022/09/01 03:23:19;;;;;;;;;;;18.50;83.20;;;-147.18;100.00;67318.16;5001914;23;19949;-84
2022/09/01 03:25:47;;;;;;;;;;;18.50;83.60;;;-147.18;100.00;67318.16;4996556;28;20461;-85
2022/09/01 03:28:15;;;;;;;;;;;18.50;82.90;;;-147.18;100.00;67318.16;4999032;28;19921;-85
2022/09/01 03:30:47;;;;;;;;;;;18.50;83.10;;;-147.18;100.00;67318.16;5005253;28;19925;-85
2022/09/01 03:33:17;;;;;;;;;;;18.50;82.90;;;-147.18;100.00;67318.16;5022155;28;19956;-85
2022/09/01 03:35:44;;;;;;;;;;;18.50;83.10;;;-147.18;100.00;67318.16;4993328;28;19969;-85
2022/09/01 03:38:20;;;;;;;;;;;18.50;82.60;;;-147.18;100.00;67318.16;4989641;28;20016;-85
2022/09/01 03:40:49;;;;;;;;;;;18.60;82.60;;;-147.18;100.00;67318.16;4994658;28;20032;-85
2022/09/01 03:43:16;;;;;;;;;;;18.50;82.70;;;-147.18;100.00;67318.16;4992471;28;20371;-85
2022/09/01 03:45:45;;;;;;;;;;;18.50;82.40;;;-147.18;100.00;67318.16;4996366;28;20415;-86
2022/09/01 03:48:15;;;;;;;;;;;18.40;82.70;;;-147.18;100.00;67318.16;4987678;28;19925;-86
2022/09/01 03:50:46;;;;;;;;;;;18.40;82.50;;;-147.18;100.00;67318.16;4988494;28;19932;-85
2022/09/01 03:53:15;;;;;;;;;;;18.50;82.40;;;-147.18;100.00;67318.16;4996012;28;20012;-85
2022/09/01 03:55:44;;;;;;;;;;;18.50;82.40;;;-147.18;100.00;67318.16;4987649;28;19925;-85
2022/09/01 03:58:13;;;;;;;;;;;18.40;82.10;;;-147.18;100.00;67318.16;4999933;28;19929;-85
2022/09/01 04:00:43;;;;;;;;;;;18.50;82.20;;;-147.18;100.00;67318.16;4996836;28;19957;-85
2022/09/01 04:03:12;;;;;;;;;;;18.40;82.30;;;-147.18;100.00;67318.16;4993883;28;19933;-85
2022/09/01 04:05:42;;;;;;;;;;;18.40;82.30;;;-147.18;100.00;67318.16;4993480;28;19925;-85
2022/09/01 04:08:12;;;;;;;;;;;18.40;82.40;;;-147.18;100.00;67318.16;4990851;28;20378;-84
2022/09/01 04:10:48;;;;;;;;;;;18.40;82.30;;;-147.18;100.00;67318.16;5001057;28;20403;-85
2022/09/01 04:13:18;;;;;;;;;;;18.40;82.60;;;-147.18;100.00;67318.16;5004021;28;19921;-85
2022/09/01 04:15:45;;;;;;;;;;;18.30;82.70;;;-147.18;100.00;67318.16;4989409;28;19936;-80
2022/09/01 04:18:19;;;;;;;;;;;18.30;82.70;;;-147.18;100.00;67318.16;4987017;28;19925;-81
2022/09/01 04:20:49;;;;;;;;;;;18.30;82.60;;;-147.18;100.00;67318.16;4991644;28;20417;-83
2022/09/01 04:23:25;;;;;;;;;;;18.30;82.60;;;-147.18;100.00;67318.16;4987909;28;19922;-84
2022/09/01 04:25:55;;;;;;;;;;;18.30;82.50;;;-147.18;100.00;67318.16;5009623;28;19929;-83
2022/09/01 04:28:25;;;;;;;;;;;18.30;82.40;;;-147.18;100.00;67318.16;5000889;28;19925;-83
2022/09/01 04:30:55;;;;;;;;;;;18.30;82.40;;;-147.18;100.00;67318.16;4999988;28;19932;-82
2022/09/01 04:33:26;;;;;;;;;;;18.30;82.40;;;-147.18;100.00;67318.16;4985180;28;20020;-83
2022/09/01 04:35:55;;;;;;;;;;;18.30;82.70;;;-147.18;100.00;67318.16;4991258;28;20008;-82
2022/09/01 04:38:24;;;;;;;;;;;18.30;83.00;;;-147.18;100.00;67318.16;4983904;28;19925;-83
2022/09/01 04:40:56;;;;;;;;;;;18.20;82.80;;;-147.18;100.00;67318.16;4994306;28;20341;-82
2022/09/01 04:43:23;;;;;;;;;;;18.20;82.90;;;-147.18;100.00;67318.16;4985668;28;19968;-82
2022/09/01 04:45:50;;;;;;;;;;;18.20;83.10;;;-147.18;100.00;67318.16;4990818;28;20016;-82
2022/09/01 04:48:19;;;;;;;;;;;18.10;82.90;;;-147.18;100.00;67318.16;4992462;28;20044;-82
2022/09/01 04:50:48;;;;;;;;;;;18.10;83.40;;;-147.18;100.00;67318.16;4999451;28;19921;-82
2022/09/01 04:53:26;;;;;;;;;;;18.10;83.40;;;-147.18;100.00;67318.16;4995892;28;19925;-82
2022/09/01 04:55:53;;;;;;;;;;;18.00;83.40;;;-147.18;100.00;67318.16;4993038;28;19925;-83
2022/09/01 04:58:22;;;;;;;;;;;18.00;83.60;;;-147.18;100.00;67318.16;4997716;28;19922;-83
2022/09/01 05:00:51;;;;;;;;;;;18.00;83.60;;;-147.18;100.00;67318.16;4996474;28;20374;-84
2022/09/01 05:03:22;;;;;;;;;;;18.00;83.80;;;-147.18;100.00;67318.16;4996053;28;19945;-80
2022/09/01 05:05:59;;;;;;;;;;;18.00;83.60;;;-147.18;100.00;67318.16;4997326;28;20021;-78
2022/09/01 05:08:27;;;;;;;;;;;18.00;83.60;;;-147.18;100.00;67318.16;4994501;28;20334;-79
2022/09/01 05:10:57;;;;;;;;;;;18.00;84.00;;;-147.18;100.00;67318.16;5002225;28;19964;-79
2022/09/01 05:13:39;;;;;;;;;;;18.00;84.20;;;-147.18;100.00;67318.16;4977706;28;20310;-80
2022/09/01 05:16:11;;;;;;;;;;;18.00;84.30;;;-147.18;100.00;67318.16;4981375;28;19950;-79
2022/09/01 05:18:39;;;;;;;;;;;18.00;83.70;;;-147.18;100.00;67318.16;4987446;28;19985;-80
2022/09/01 05:21:08;;;;;;;;;;;18.00;83.70;;;-147.18;100.00;67318.16;4990730;28;20012;-80
2022/09/01 05:23:39;;;;;;;;;;;18.00;83.80;;;-147.18;100.00;67318.16;4990791;28;19922;-80
2022/09/01 05:26:15;;;;;;;;;;;18.00;84.20;;;-147.18;100.00;67318.16;4989545;28;19922;-80
2022/09/01 05:28:43;;;;;;;;;;;18.00;84.10;;;-147.18;100.00;67318.16;4981588;28;19925;-80
2022/09/01 05:31:11;;;;;;;;;;;18.00;84.20;;;-147.18;100.00;67318.16;4996096;28;20012;-80
2022/09/01 05:33:44;;;;;;;;;;;18.10;84.70;;;-147.18;100.00;67318.16;4993448;28;19933;-78
2022/09/01 05:36:12;;;;;;;;;;;18.10;84.40;;;-147.18;100.00;67318.16;4994729;28;20032;-80
2022/09/01 05:38:40;;;;;;;;;;;18.10;84.70;;;-147.18;100.00;67318.16;4985159;28;19926;-82
2022/09/01 05:41:13;;;;;;;;;;;18.10;84.70;;;-147.18;100.00;67318.16;4991090;28;19933;-82
2022/09/01 05:43:47;;;;;;;;;;;18.10;84.20;;;-147.18;100.00;67318.16;4993582;28;19926;-82
2022/09/01 05:46:16;;;;;;;;;;;18.20;84.20;;;-147.18;100.00;67318.16;4992940;28;20476;-82
2022/09/01 05:48:44;;;;;;;;;;;18.20;84.50;;;-147.18;100.00;67318.16;4975867;28;20028;-82
2022/09/01 05:51:15;;;;;;;;;;;18.20;84.20;;;-147.18;100.00;67318.16;4998011;28;19927;-82
2022/09/01 05:53:43;;;;;;;;;;;18.20;84.40;;;-147.18;100.00;67318.16;4990312;28;19976;-82
2022/09/01 05:56:12;;;;;;;;;;;18.20;84.60;;;-147.18;100.00;67318.16;4987714;28;19926;-82
2022/09/01 05:58:40;;;;;;;;;;;18.20;84.40;;;-147.18;100.00;67318.16;4986461;28;20172;-82
2022/09/01 06:01:09;;;;;;;;;;;18.30;84.30;;;-147.18;100.00;67318.16;4995590;28;20289;-82
2022/09/01 06:03:39;;;;;;;;;;;18.30;84.20;;;-147.18;100.00;67318.16;4976657;28;20012;-82
2022/09/01 06:06:11;;;;;;;;;;;18.30;83.70;;;-147.18;100.00;67318.16;4985508;28;20000;-82
2022/09/01 06:08:41;;;;;;;;;;;18.30;83.70;;;-147.18;100.00;67318.16;4980755;28;20012;-82
2022/09/01 06:11:12;;;;;;;;;;;18.40;84.10;;;-147.18;100.00;67318.16;4995437;28;19925;-82
2022/09/01 06:13:41;;;;;;;;;;;18.40;84.30;;;-147.18;100.00;67318.16;4987625;28;20306;-82
2022/09/01 06:16:08;;;;;;;;;;;18.40;85.20;;;-147.18;100.00;67318.16;4985535;28;19929;-82
2022/09/01 06:18:36;;;;;;;;;;;18.40;84.80;;;-147.18;100.00;67318.16;4981197;28;19930;-82
2022/09/01 06:21:07;;;;;;;;;;;18.40;84.50;;;-147.18;100.00;67318.16;4993463;28;19921;-82
2022/09/01 06:23:34;;;;;;;;;;;18.40;84.50;;;-147.18;100.00;67318.16;4999391;28;19933;-82
2022/09/01 06:26:02;;;;;;;;;;;18.40;84.80;;;-147.18;100.00;67318.16;4985911;28;19922;-82
2022/09/01 06:28:32;;;;;;;;;;;18.50;84.70;;;-147.18;100.00;67318.16;4987394;28;20341;-82
2022/09/01 06:30:59;;;;;;;;;;;18.50;83.70;;;-147.18;100.00;67318.16;4998720;28;19925;-83
2022/09/01 06:33:26;;;;;;;;;;;18.60;83.90;;;-147.18;100.00;67318.16;4995026;28;19926;-82
2022/09/01 06:35:54;;;;;;;;;;;18.60;83.80;;;-147.18;100.00;67318.16;4982751;28;20013;-82
2022/09/01 06:38:24;;;;;;;;;;;18.60;84.20;;;-147.18;100.00;67318.16;4985192;28;19922;-82
2022/09/01 06:41:00;;;;;;;;;;;18.60;83.90;;;-147.18;100.00;67318.16;4989532;28;20413;-82
2022/09/01 06:43:29;;;;;;;;;;;18.50;83.80;;;-147.18;100.00;67318.16;4980912;28;19936;-82
2022/09/01 06:46:01;;;;;;;;;;;18.70;83.90;;;-147.18;100.00;67318.16;4996180;28;20445;-82
2022/09/01 06:48:29;;;;;;;;;;;18.80;84.20;;;-147.18;100.00;67318.16;4981500;28;19947;-82
2022/09/01 06:51:04;;;;;;;;;;;18.80;83.90;;;-147.18;100.00;67318.16;4992727;28;19933;-82
2022/09/01 06:53:33;;;;;;;;;;;18.80;83.90;;;-147.18;100.00;67318.16;4996840;28;20381;-82
2022/09/01 06:56:02;;;;;;;;;;;18.90;83.30;;;-147.18;100.00;67318.16;4988265;28;19968;-83
2022/09/01 06:58:30;;;;;;;;;;;18.90;83.30;;;-147.18;100.00;67318.16;4987881;28;20410;-83
2022/09/01 07:00:58;;;;;;;;;;;19.00;83.10;;;-147.18;100.00;67318.16;4988242;28;19928;-83
2022/09/01 07:03:25;;;;;;;;;;;19.00;83.30;;;-147.18;100.00;67318.16;4998643;28;19936;-82
2022/09/01 07:06:13;;;;;;;;;;;19.10;83.00;;;-147.18;100.00;67318.16;4989476;28;19933;-83
2022/09/01 07:09:00;;;;;;;;;;;19.10;82.50;;;-147.18;100.00;67318.16;4982792;28;19929;-82
2022/09/01 07:11:34;;;;;;;;;;;19.20;82.20;;;-147.18;100.00;67318.16;4993653;28;20012;-83
2022/09/01 07:14:05;;;;;;;;;;;19.30;81.80;;;-147.18;100.00;67318.16;4992626;28;20337;-83
2022/09/01 07:16:39;;;;;;;;;;;19.30;81.40;;;-147.18;100.00;67318.16;4985946;28;20386;-83
2022/09/01 07:19:12;;;;;;;;;;;19.40;80.80;;;-147.18;100.00;67318.16;4993271;28;20027;-83
2022/09/01 07:21:45;;;;;;;;;;;19.40;81.30;;;-147.18;100.00;67318.16;4988977;28;19957;-83
2022/09/01 07:24:17;;;;;;;;;;;19.50;80.20;;;-147.18;100.00;67318.16;4988438;28;20386;-83
2022/09/01 07:27:05;;;;;;;;;;;19.60;80.40;;;-147.18;100.00;67318.16;4988898;28;20094;-83
2022/09/01 07:29:33;;;;;;;;;;;19.70;79.70;;;-147.18;100.00;67318.16;4974660;28;20009;-82
2022/09/01 07:32:03;;;;;;;;;;;19.70;79.50;;;-147.18;100.00;67318.16;4985579;28;19972;-83
2022/09/01 07:34:30;;;;;;;;;;;19.80;79.50;;;-147.18;100.00;67318.16;4993733;28;20457;-83
2022/09/01 07:37:00;;;;;;;;;;;19.90;78.50;;;-147.18;100.00;67318.16;4993165;28;20382;-83
2022/09/01 07:39:28;;;;;;;;;;;19.90;77.70;;;-147.18;100.00;67318.16;5009237;28;20346;-83
2022/09/01 07:42:17;;;;;;;;;;;19.90;77.00;;;-147.18;100.00;67318.16;4992406;28;19929;-83
2022/09/01 07:45:08;;;;;;;;;;;20.00;77.00;;;-147.18;100.00;67318.16;4967953;28;19926;-82
2022/09/01 07:47:46;;;;;;;;;;;20.10;76.70;;;-147.18;100.00;67318.16;4985510;28;19926;-82
2022/09/01 07:50:14;;;;;;;;;;;20.10;76.20;;;-147.18;100.00;67318.16;4989404;28;19930;-83
2022/09/01 07:52:42;;;;;;;;;;;20.20;76.00;;;-147.18;100.00;67318.16;4990914;28;20506;-83
2022/09/01 07:55:12;;;;;;;;;;;20.20;76.20;;;-147.18;100.00;67318.16;4989757;28;20321;-83
2022/09/01 07:57:41;;;;;;;;;;;20.20;75.70;;;-147.18;100.00;67318.16;4997880;28;20370;-82
2022/09/01 08:00:11;;;;;;;;;;;20.30;76.30;;;-147.18;100.00;67318.16;4995779;28;19921;-83
2022/09/01 08:02:42;;;;;;;;;;;20.30;73.70;;;-147.18;100.00;67318.16;4997407;28;20298;-83
2022/09/01 08:05:16;;;;;;;;;;;20.40;74.20;;;-147.18;100.00;67318.16;5001605;28;19932;-83
2022/09/01 08:07:46;;;;;;;;;;;20.50;75.20;;;-147.18;100.00;67318.16;4985237;28;19922;-83
2022/09/01 08:10:13;;;;;;;;;;;20.50;73.70;;;-147.18;100.00;67318.16;4993078;28;19922;-83
2022/09/01 08:12:41;;;;;;;;;;;20.60;74.60;;;-147.18;100.00;67318.16;4988891;28;19926;-83
2022/09/01 08:15:10;;;;;;;;;;;20.60;73.70;;;-147.18;100.00;67318.16;4999398;28;19980;-83
2022/09/01 08:17:38;;;;;;;;;;;20.70;73.30;;;-147.18;100.00;67318.16;4984918;28;19949;-83
2022/09/01 08:20:12;;;;;;;;;;;20.70;74.60;;;-147.18;100.00;67318.16;4992454;28;19945;-83
2022/09/01 08:22:57;;;;;;;;;;;20.80;71.90;;;-147.18;100.00;67318.16;4990681;28;19929;-82
2022/09/01 08:25:29;;;;;;;;;;;20.80;72.30;;;-147.18;100.00;67318.16;5000231;28;20382;-83
2022/09/01 08:27:56;;;;;;;;;;;20.90;72.00;;;-147.18;100.00;67318.16;4982750;28;20399;-84
2022/09/01 08:30:23;;;;;;;;;;;20.90;70.50;;;-147.18;100.00;67318.16;4991049;28;19926;-84
2022/09/01 08:32:50;;;;;;;;;;;20.90;70.90;;;-147.18;100.00;67318.16;4991958;28;19930;-84
2022/09/01 08:35:19;;;;;;;;;;;21.00;70.00;;;-147.18;100.00;67318.16;4982033;28;19961;-84
2022/09/01 08:37:46;;;;;;;;;;;21.10;70.40;;;-147.18;100.00;67318.16;5000163;28;19925;-84
2022/09/01 08:40:16;;;;;;;;;;;21.00;70.00;;;-147.18;100.00;67318.16;4989215;28;20358;-83
2022/09/01 08:42:53;;;;;;;;;;;21.00;68.90;;;-147.18;100.00;67318.16;4986320;28;20542;-82
2022/09/01 08:45:24;;;;;;;;;;;21.10;68.90;;;-147.18;100.00;67318.16;5001756;28;19926;-82
2022/09/01 08:47:55;;;;;;;;;;;21.20;69.60;;;-147.18;100.00;67318.16;4989650;28;19976;-82
2022/09/01 08:50:24;;;;;;;;;;;21.20;68.80;;;-147.18;100.00;67318.16;4992005;28;20394;-82
2022/09/01 08:53:15;;;;;;;;;;;21.20;68.20;;;-147.18;100.00;67318.16;4991086;28;19922;-82
2022/09/01 08:55:45;;;;;;;;;;;21.20;67.70;;;-147.18;100.00;67318.16;4996683;28;20016;-82
2022/09/01 08:58:16;;;;;;;;;;;21.20;67.40;;;-147.18;100.00;67318.16;4999037;28;20368;-82
2022/09/01 09:01:11;;;;;;;;;;;21.20;67.20;;;-147.18;100.00;67318.16;4985739;28;20012;-82
2022/09/01 09:03:42;;;;;;;;;;;21.30;67.60;;;-147.18;100.00;67318.16;4991343;28;20382;-82
2022/09/01 09:06:21;;;;;;;;;;;21.40;67.70;;;-147.18;100.00;67318.16;4990660;28;20298;-82
2022/09/01 09:08:57;;;;;;;;;;;21.40;67.80;;;-147.18;100.00;67318.16;4991750;28;19921;-82
2022/09/01 09:11:41;;;;;;;;;;;21.50;67.90;;;-147.18;100.00;67318.16;4991863;28;20016;-82
2022/09/01 09:14:14;;;;;;;;;;;21.50;67.20;;;-147.18;100.00;67318.16;4994800;28;19922;-82
2022/09/01 09:16:42;;;;;;;;;;;21.50;67.70;;;-147.18;100.00;67318.16;4986085;28;19936;-82
2022/09/01 09:19:15;;;;;;;;;;;21.60;67.30;;;-147.18;100.00;67318.16;4988987;28;19928;-82
2022/09/01 09:21:47;;;;;;;;;;;21.50;67.00;;;-147.18;100.00;67318.16;4989804;28;19929;-82
2022/09/01 09:24:19;;;;;;;;;;;21.60;67.00;;;-147.18;100.00;67318.16;5010510;23;20024;-84
2022/09/01 09:26:48;;;;;;;;;;;21.60;67.00;;;-147.18;100.00;67318.16;5006261;28;20055;-84
2022/09/01 09:29:15;;;;;;;;;;;21.70;67.20;;;-147.18;100.00;67318.16;5008494;28;19936;-84
2022/09/01 09:31:47;;;;;;;;;;;21.70;66.60;;;-147.18;100.00;67318.16;5002886;28;19930;-84
2022/09/01 09:34:31;;;;;;;;;;;21.70;66.70;;;-147.18;100.00;67318.16;5005639;28;19972;-84
2022/09/01 09:37:16;;;;;;;;;;;21.70;66.20;;;-147.18;100.00;67318.16;4996784;28;20378;-84
2022/09/01 09:39:44;;;;;;;;;;;21.80;65.10;;;-147.18;100.00;67318.16;5000845;28;19932;-84
2022/09/01 09:42:13;;;;;;;;;;;21.80;65.40;;;-147.18;100.00;67318.16;5001401;28;20012;-84
2022/09/01 09:44:43;;;;;;;;;;;21.80;65.70;;;-147.18;100.00;67318.16;4992866;28;19929;-83
2022/09/01 09:47:13;;;;;;;;;;;21.80;64.70;;;-147.18;100.00;67318.16;4995837;28;20309;-84
2022/09/01 09:49:40;;;;;;;;;;;21.80;65.50;;;-147.18;100.00;67318.16;5011254;28;19991;-83
2022/09/01 09:52:17;;;;;;;;;;;21.80;63.60;;;-147.18;100.00;67318.16;5009627;28;19926;-84
2022/09/01 09:55:02;;;;;;;;;;;21.80;64.40;;;-147.18;100.00;67318.16;5004484;28;19921;-84
2022/09/01 09:57:30;;;;;;;;;;;21.90;64.80;;;-147.18;100.00;67318.16;5008492;28;19928;-83
2022/09/01 09:59:59;;;;;;;;;;;21.90;63.40;;;-147.18;100.00;67318.16;5007297;28;19925;-83
2022/09/01 10:02:31;;;;;;;;;;;21.90;63.20;;;-147.18;100.00;67318.16;4992959;28;20732;-83
2022/09/01 10:04:59;;;;;;;;;;;21.90;63.50;;;-147.18;100.00;67318.16;4991615;28;19928;-82
2022/09/01 10:07:31;;;;;;;;;;;22.00;64.60;;;-147.18;100.00;67318.16;4998213;28;20308;-80
2022/09/01 10:10:00;;;;;;;;;;;22.00;64.40;;;-147.18;100.00;67318.16;5007772;28;20015;-81
2022/09/01 10:12:28;;;;;;;;;;;22.00;64.80;;;-147.18;100.00;67318.16;4998813;28;20345;-79
2022/09/01 10:14:58;;;;;;;;;;;22.00;64.30;;;-147.18;100.00;67318.16;5010175;28;19921;-80
2022/09/01 10:17:29;;;;;;;;;;;22.00;63.90;;;-147.18;100.00;67318.16;4997307;28;19921;-82
2022/09/01 10:20:04;;;;;;;;;;;22.00;64.30;;;-147.18;100.00;67318.16;4999036;28;20521;-80
2022/09/01 10:22:33;;;;;;;;;;;22.00;64.70;;;-147.18;100.00;67318.16;5001881;28;19952;-80
2022/09/01 10:25:00;;;;;;;;;;;22.00;65.30;;;-147.18;100.00;67318.16;5000217;28;19979;-81
2022/09/01 10:27:30;;;;;;;;;;;22.10;65.50;;;-147.18;100.00;67318.16;4998504;28;19926;-80
2022/09/01 10:30:02;;;;;;;;;;;22.10;65.60;;;-147.18;100.00;67318.16;5007276;28;20028;-80
2022/09/01 10:32:34;;;;;;;;;;;22.10;65.90;;;-147.18;100.00;67318.16;5004104;28;19921;-80
2022/09/01 10:35:03;;;;;;;;;;;22.10;65.40;;;-147.18;100.00;67318.16;5003178;28;19926;-80
2022/09/01 10:37:32;;;;;;;;;;;22.10;65.00;;;-147.18;100.00;67318.16;4997428;28;20509;-80
2022/09/01 10:40:21;;;;;;;;;;;22.10;65.00;;;-147.18;100.00;67318.16;5009657;28;19927;-78
2022/09/01 10:42:52;;;;;;;;;;;22.10;65.50;;;-147.18;100.00;67318.16;5006208;28;19965;-79
2022/09/01 10:45:31;;;;;;;;;;;22.10;66.10;;;-147.18;100.00;67318.16;4992270;28;19929;-80
2022/09/01 10:48:28;;;;;;;;;;;22.20;65.80;;;-147.18;100.00;67318.16;4997877;28;19975;-81
2022/09/01 10:51:11;;;;;;;;;;;22.20;66.30;;;-147.18;100.00;67318.16;5002617;28;20018;-81
2022/09/01 10:53:41;;;;;;;;;;;22.20;65.80;;;-147.18;100.00;67318.16;4992091;28;20016;-81
2022/09/01 10:56:10;;;;;;;;;;;22.20;65.80;;;-147.18;100.00;67318.16;4990618;28;19925;-81
2022/09/01 10:58:50;;;;;;;;;;;22.20;65.50;;;-147.18;100.00;67318.16;5004592;28;20560;-81
2022/09/01 11:01:17;;;;;;;;;;;22.20;65.50;;;-147.18;100.00;67318.16;4998506;28;19930;-82
2022/09/01 11:03:55;;;;;;;;;;;22.30;66.10;;;-147.18;100.00;67318.16;5007304;28;20409;-82
2022/09/01 11:06:57;;;;;;;;;;;22.30;66.30;;;-147.18;100.00;67318.16;4994251;28;19932;-82
2022/09/01 11:09:32;;;;;;;;;;;22.30;66.20;;;-147.18;100.00;67318.16;5005662;28;20032;-82
2022/09/01 11:12:35;;;;;;;;;;;22.40;66.10;;;-147.18;100.00;67318.16;5003216;28;20342;-82
2022/09/01 11:15:05;;;;;;;;;;;22.50;65.90;;;-147.18;100.00;67318.16;4987981;28;19961;-82